createdAt,value
2018-06-17T00:00:10.028Z,17.00
2018-06-17T00:02:15.083Z,17.20
2018-06-17T00:04:20.132Z,17.50
2018-06-17T00:06:27.667Z,17.50
2018-06-17T00:08:32.979Z,17.30
2018-06-17T00:10:37.977Z,17.30
2018-06-17T00:12:43.438Z,17.20
2018-06-17T00:14:48.434Z,17.30
2018-06-17T00:16:53.492Z,16.80
2018-06-17T00:18:58.477Z,17.00
2018-06-17T00:21:03.490Z,17.30
2018-06-17T00:25:13.372Z,17.30
2018-06-17T00:27:19.052Z,17.40
2018-06-17T00:29:24.311Z,17.30
2018-06-17T00:31:29.329Z,17.20
2018-06-17T00:33:34.362Z,16.70
2018-06-17T00:35:39.309Z,17.00
2018-06-17T00:39:48.631Z,16.90
2018-06-17T00:41:54.031Z,17.30
2018-06-17T00:43:59.059Z,17.50
2018-06-17T00:46:05.054Z,17.70
2018-06-17T00:48:10.023Z,17.70
2018-06-17T00:50:14.999Z,17.70
2018-06-17T00:52:19.944Z,17.60
2018-06-17T00:54:24.986Z,17.70
2018-06-17T00:56:29.931Z,17.70
2018-06-17T00:58:34.924Z,17.60
2018-06-17T01:00:40.320Z,17.70
2018-06-17T01:02:45.843Z,17.60
2018-06-17T01:04:50.730Z,17.70
2018-06-17T01:06:55.776Z,17.70
2018-06-17T01:09:00.716Z,17.70
2018-06-17T01:11:05.722Z,17.80
2018-06-17T01:13:11.019Z,17.80
2018-06-17T01:15:16.663Z,17.70
2018-06-17T01:17:22.008Z,17.70
2018-06-17T01:19:27.160Z,17.80
2018-06-17T01:21:32.120Z,17.90
2018-06-17T01:23:37.406Z,17.80
2018-06-17T01:25:42.397Z,17.70
2018-06-17T01:27:47.298Z,17.50
2018-06-17T01:29:52.542Z,17.50
2018-06-17T01:31:57.533Z,17.50
2018-06-17T01:34:02.767Z,17.60
2018-06-17T01:36:07.744Z,17.60
2018-06-17T01:38:12.995Z,17.50
2018-06-17T01:40:19.167Z,17.00
2018-06-17T01:42:24.571Z,17.30
2018-06-17T01:44:30.111Z,17.30
2018-06-17T01:46:35.424Z,17.30
2018-06-17T01:48:40.573Z,17.40
2018-06-17T01:50:46.576Z,17.50
2018-06-17T01:52:52.277Z,17.40
2018-06-17T01:54:58.223Z,17.50
2018-06-17T01:57:03.178Z,17.60
2018-06-17T01:59:08.238Z,17.50
2018-06-17T02:01:14.453Z,17.50
2018-06-17T02:03:25.354Z,17.50
2018-06-17T02:05:35.863Z,17.30
2018-06-17T02:07:46.694Z,17.20
2018-06-17T02:09:57.346Z,17.20
2018-06-17T02:12:20.093Z,17.10
2018-06-17T02:14:32.249Z,17.10
2018-06-17T02:16:37.632Z,17.20
2018-06-17T02:18:42.554Z,17.30
2018-06-17T02:20:47.539Z,17.10
2018-06-17T02:22:52.518Z,17.10
2018-06-17T02:24:57.447Z,17.20
2018-06-17T02:27:05.302Z,17.00
2018-06-17T02:29:10.779Z,16.90
2018-06-17T02:31:16.140Z,16.40
2018-06-17T02:33:21.074Z,16.50
2018-06-17T02:35:26.423Z,16.70
2018-06-17T02:37:31.733Z,16.40
2018-06-17T02:39:37.066Z,16.80
2018-06-17T02:41:42.919Z,16.80
2018-06-17T02:43:48.673Z,16.30
2018-06-17T02:46:00.042Z,16.40
2018-06-17T02:48:11.090Z,16.30
2018-06-17T02:50:22.891Z,16.50
2018-06-17T02:52:33.393Z,16.20
2018-06-17T02:54:40.391Z,16.30
2018-06-17T02:56:46.447Z,16.40
2018-06-17T03:00:56.830Z,16.50
2018-06-17T03:03:02.015Z,16.30
2018-06-17T03:05:06.996Z,16.20
2018-06-17T03:07:12.468Z,16.40
2018-06-17T03:09:17.562Z,16.40
2018-06-17T03:11:22.714Z,16.40
2018-06-17T03:13:27.677Z,16.50
2018-06-17T03:15:32.591Z,16.30
2018-06-17T03:17:37.666Z,16.10
2018-06-17T03:19:42.618Z,16.10
2018-06-17T03:21:48.281Z,16.10
2018-06-17T03:23:53.259Z,16.30
2018-06-17T03:26:03.314Z,16.20
2018-06-17T03:28:13.435Z,16.20
2018-06-17T03:30:23.567Z,16.10
2018-06-17T03:32:33.544Z,16.40
2018-06-17T03:34:39.430Z,16.60
2018-06-17T03:36:44.431Z,16.70
2018-06-17T03:38:49.413Z,16.80
2018-06-17T03:40:54.385Z,16.80
2018-06-17T03:42:59.770Z,16.40
2018-06-17T03:45:04.741Z,16.20
2018-06-17T03:47:09.646Z,16.30
2018-06-17T03:49:15.524Z,16.20
2018-06-17T03:51:20.793Z,16.50
2018-06-17T03:53:25.809Z,16.40
2018-06-17T03:55:30.811Z,16.30
2018-06-17T03:57:35.757Z,16.40
2018-06-17T03:59:40.727Z,16.00
2018-06-17T04:01:45.859Z,15.80
2018-06-17T04:03:51.198Z,15.90
2018-06-17T04:05:56.359Z,16.00
2018-06-17T04:08:01.665Z,16.20
2018-06-17T04:10:07.267Z,16.20
2018-06-17T04:12:13.247Z,16.20
2018-06-17T04:14:18.254Z,16.20
2018-06-17T04:16:23.228Z,16.20
2018-06-17T04:18:28.143Z,16.30
2018-06-17T04:20:33.735Z,16.40
2018-06-17T04:22:38.958Z,16.30
2018-06-17T04:24:43.918Z,16.10
2018-06-17T04:26:49.268Z,16.40
2018-06-17T04:28:54.263Z,16.10
2018-06-17T04:30:59.150Z,16.10
2018-06-17T04:33:04.095Z,15.80
2018-06-17T04:35:09.060Z,15.90
2018-06-17T04:37:14.063Z,15.60
2018-06-17T04:39:19.492Z,15.80
2018-06-17T04:41:24.924Z,15.70
2018-06-17T04:43:29.876Z,15.90
2018-06-17T04:45:35.804Z,15.80
2018-06-17T04:47:40.803Z,15.90
2018-06-17T04:49:45.681Z,16.00
2018-06-17T04:51:50.697Z,16.10
2018-06-17T04:53:55.978Z,16.30
2018-06-17T04:56:01.378Z,16.20
2018-06-17T04:58:06.372Z,16.00
2018-06-17T05:00:11.300Z,15.70
2018-06-17T05:02:17.319Z,15.90
2018-06-17T05:04:23.400Z,16.00
2018-06-17T05:06:28.464Z,16.20
2018-06-17T05:08:33.433Z,16.20
2018-06-17T05:10:38.330Z,16.50
2018-06-17T05:12:43.516Z,16.30
2018-06-17T05:14:48.658Z,15.90
2018-06-17T05:16:53.972Z,16.10
2018-06-17T05:18:59.325Z,16.10
2018-06-17T05:21:04.382Z,16.20
2018-06-17T05:23:09.343Z,15.90
2018-06-17T05:25:15.343Z,15.80
2018-06-17T05:27:20.319Z,16.10
2018-06-17T05:29:25.252Z,16.20
2018-06-17T05:31:30.312Z,16.30
2018-06-17T05:33:35.330Z,16.10
2018-06-17T05:35:40.323Z,16.30
2018-06-17T05:37:45.312Z,16.10
2018-06-17T05:39:50.897Z,16.20
2018-06-17T05:41:57.258Z,16.10
2018-06-17T05:44:03.762Z,16.20
2018-06-17T05:46:08.968Z,16.20
2018-06-17T05:48:14.212Z,16.10
2018-06-17T05:50:19.266Z,16.20
2018-06-17T05:52:24.650Z,16.20
2018-06-17T05:54:29.608Z,16.20
2018-06-17T05:56:34.575Z,16.30
2018-06-17T05:58:39.494Z,16.20
2018-06-17T06:00:44.466Z,16.30
2018-06-17T06:02:49.491Z,16.40
2018-06-17T06:07:09.553Z,16.20
2018-06-17T06:09:15.502Z,16.30
2018-06-17T06:11:20.614Z,16.30
2018-06-17T06:13:25.544Z,16.20
2018-06-17T06:15:30.501Z,16.30
2018-06-17T06:17:36.761Z,16.30
2018-06-17T06:19:41.696Z,16.30
2018-06-17T06:23:51.026Z,16.40
2018-06-17T06:25:56.579Z,16.30
2018-06-17T06:28:01.579Z,16.20
2018-06-17T06:30:07.102Z,16.20
2018-06-17T06:32:12.178Z,16.30
2018-06-17T06:34:17.144Z,16.60
2018-06-17T06:36:22.151Z,16.70
2018-06-17T06:38:27.095Z,16.60
2018-06-17T06:40:32.027Z,16.60
2018-06-17T06:42:38.272Z,16.60
2018-06-17T06:44:43.219Z,16.80
2018-06-17T06:46:48.576Z,16.80
2018-06-17T06:48:53.739Z,16.70
2018-06-17T06:50:58.767Z,16.50
2018-06-17T06:53:03.791Z,16.40
2018-06-17T06:55:09.024Z,16.70
2018-06-17T06:57:13.964Z,16.50
2018-06-17T06:59:18.920Z,16.60
2018-06-17T07:01:34.802Z,16.60
2018-06-17T07:03:50.694Z,16.60
2018-06-17T07:06:06.676Z,16.90
2018-06-17T07:08:22.522Z,17.00
2018-06-17T07:10:28.818Z,17.00
2018-06-17T07:12:34.359Z,17.00
2018-06-17T07:14:39.396Z,16.90
2018-06-17T07:16:55.273Z,16.80
2018-06-17T07:19:00.249Z,16.80
2018-06-17T07:21:05.055Z,16.80
2018-06-17T07:23:09.772Z,16.90
2018-06-17T07:25:32.902Z,16.80
2018-06-17T07:28:05.279Z,16.70
2018-06-17T07:30:10.020Z,16.80
2018-06-17T07:32:14.799Z,17.00
2018-06-17T07:34:19.525Z,16.80
2018-06-17T07:36:24.568Z,16.80
2018-06-17T07:38:29.250Z,16.80
2018-06-17T07:40:52.755Z,16.70
2018-06-17T07:42:57.651Z,16.80
2018-06-17T07:45:03.419Z,16.60
2018-06-17T07:47:08.264Z,16.70
2018-06-17T07:49:34.308Z,16.90
2018-06-17T07:51:50.063Z,17.20
2018-06-17T07:53:55.809Z,17.30
2018-06-17T07:56:00.552Z,17.50
2018-06-17T07:58:05.242Z,17.50
2018-06-17T08:00:09.987Z,17.60
2018-06-17T08:02:15.105Z,17.80
2018-06-17T08:04:20.033Z,17.60
2018-06-17T08:06:25.126Z,17.40
2018-06-17T08:08:30.867Z,17.50
2018-06-17T08:10:36.007Z,17.50
2018-06-17T08:12:40.737Z,17.70
2018-06-17T08:14:45.567Z,17.70
2018-06-17T08:16:51.940Z,17.80
2018-06-17T08:18:56.803Z,17.80
2018-06-17T08:21:01.435Z,18.00
2018-06-17T08:23:06.222Z,18.00
2018-06-17T08:25:11.044Z,18.00
2018-06-17T08:27:15.740Z,18.00
2018-06-17T08:29:20.568Z,17.80
2018-06-17T08:31:25.321Z,17.80
2018-06-17T08:33:30.683Z,17.90
2018-06-17T08:35:35.598Z,18.00
2018-06-17T08:37:40.416Z,18.00
2018-06-17T08:39:45.146Z,18.00
2018-06-17T08:41:49.927Z,18.00
2018-06-17T08:43:55.076Z,18.00
2018-06-17T08:46:01.985Z,18.00
2018-06-17T08:48:08.941Z,17.90
2018-06-17T08:50:13.837Z,17.90
2018-06-17T08:52:18.630Z,17.90
2018-06-17T08:54:23.460Z,18.00
2018-06-17T08:56:29.025Z,18.10
2018-06-17T08:58:34.097Z,18.30
2018-06-17T09:00:39.484Z,18.40
2018-06-17T09:02:44.248Z,18.50
2018-06-17T09:04:49.678Z,18.50
2018-06-17T09:06:54.477Z,18.40
2018-06-17T09:08:59.877Z,18.30
2018-06-17T09:11:05.276Z,18.30
2018-06-17T09:13:10.575Z,18.40
2018-06-17T09:15:16.190Z,18.60
2018-06-17T09:17:20.925Z,18.70
2018-06-17T09:19:26.147Z,18.70
2018-06-17T09:21:30.867Z,18.40
2018-06-17T09:23:35.980Z,18.60
2018-06-17T09:25:41.820Z,18.40
2018-06-17T09:27:47.431Z,18.50
2018-06-17T09:29:52.607Z,18.70
2018-06-17T09:31:57.929Z,18.70
2018-06-17T09:34:04.126Z,18.70
2018-06-17T09:36:09.014Z,18.90
2018-06-17T09:38:13.720Z,18.80
2018-06-17T09:40:18.392Z,18.60
2018-06-17T09:42:23.580Z,18.70
2018-06-17T09:44:28.436Z,18.60
2018-06-17T09:46:33.027Z,18.70
2018-06-17T09:48:38.780Z,18.60
2018-06-17T09:50:44.547Z,18.70
2018-06-17T09:52:50.238Z,18.90
2018-06-17T09:54:55.119Z,19.00
2018-06-17T09:57:00.264Z,18.80
2018-06-17T09:59:05.003Z,19.00
2018-06-17T10:01:09.813Z,19.00
2018-06-17T10:03:14.551Z,19.10
2018-06-17T10:05:19.281Z,19.00
2018-06-17T10:07:23.989Z,18.80
2018-06-17T10:09:28.609Z,18.70
2018-06-17T10:11:33.339Z,18.40
2018-06-17T10:13:39.740Z,18.20
2018-06-17T10:15:45.435Z,18.20
2018-06-17T10:17:50.830Z,18.30
2018-06-17T10:19:55.884Z,18.50
2018-06-17T10:22:01.558Z,18.60
2018-06-17T10:24:06.523Z,18.60
2018-06-17T10:26:12.436Z,18.60
2018-06-17T10:28:17.923Z,18.90
2018-06-17T10:30:23.911Z,18.90
2018-06-17T10:32:28.843Z,19.10
2018-06-17T10:34:33.851Z,19.10
2018-06-17T10:36:38.921Z,19.40
2018-06-17T10:38:44.730Z,19.40
2018-06-17T10:40:49.690Z,19.30
2018-06-17T10:42:54.623Z,19.60
2018-06-17T10:44:59.899Z,19.80
2018-06-17T10:47:05.126Z,19.80
2018-06-17T10:49:10.911Z,19.60
2018-06-17T10:51:15.898Z,19.40
2018-06-17T10:53:22.535Z,19.20
2018-06-17T10:55:27.488Z,18.90
2018-06-17T10:57:35.011Z,18.80
2018-06-17T10:59:39.998Z,18.80
2018-06-17T11:01:44.923Z,18.80
2018-06-17T11:03:50.080Z,18.90
2018-06-17T11:05:55.398Z,19.20
2018-06-17T11:08:00.411Z,19.30
2018-06-17T11:10:08.090Z,19.30
2018-06-17T11:12:13.080Z,19.20
2018-06-17T11:14:18.107Z,19.10
2018-06-17T11:16:23.074Z,19.10
2018-06-17T11:18:27.994Z,19.00
2018-06-17T11:20:32.974Z,19.10
2018-06-17T11:22:37.916Z,19.20
2018-06-17T11:24:44.341Z,19.40
2018-06-17T11:26:49.429Z,19.70
2018-06-17T11:28:54.400Z,19.50
2018-06-17T11:31:00.280Z,19.30
2018-06-17T11:33:05.258Z,19.40
2018-06-17T11:35:11.433Z,19.20
2018-06-17T11:37:17.404Z,19.10
2018-06-17T11:39:22.544Z,19.30
2018-06-17T11:41:28.046Z,19.20
2018-06-17T11:43:33.203Z,19.40
2018-06-17T11:45:38.269Z,19.30
2018-06-17T11:47:43.979Z,19.20
2018-06-17T11:49:49.513Z,19.30
2018-06-17T11:51:54.649Z,19.20
2018-06-17T11:53:59.742Z,19.10
2018-06-17T11:56:04.804Z,19.10
2018-06-17T11:58:09.930Z,19.20
2018-06-17T12:00:14.917Z,19.40
2018-06-17T12:02:19.857Z,19.40
2018-06-17T12:04:25.641Z,19.50
2018-06-17T12:06:30.983Z,19.60
2018-06-17T12:08:36.948Z,19.50
2018-06-17T12:10:42.783Z,19.30
2018-06-17T12:12:49.366Z,19.50
2018-06-17T12:14:56.506Z,19.40
2018-06-17T12:17:01.481Z,19.10
2018-06-17T12:19:06.860Z,19.20
2018-06-17T12:21:11.912Z,19.30
2018-06-17T12:23:17.516Z,19.20
2018-06-17T12:25:23.944Z,19.20
2018-06-17T12:27:29.298Z,19.30
2018-06-17T12:31:40.062Z,19.30
2018-06-17T12:33:47.016Z,19.30
2018-06-17T12:35:52.145Z,19.30
2018-06-17T12:40:31.116Z,19.60
2018-06-17T12:42:36.753Z,19.50
2018-06-17T12:44:42.610Z,19.30
2018-06-17T12:46:48.722Z,19.10
2018-06-17T12:48:54.761Z,19.20
2018-06-17T12:51:00.574Z,19.20
2018-06-17T12:53:06.936Z,19.20
2018-06-17T12:57:17.770Z,19.10
2018-06-17T12:59:25.275Z,19.40
2018-06-17T13:01:32.845Z,19.60
2018-06-17T13:03:38.161Z,19.80
2018-06-17T13:05:43.711Z,20.00
2018-06-17T13:07:49.882Z,19.80
2018-06-17T13:09:55.065Z,19.90
2018-06-17T13:12:00.071Z,20.20
2018-06-17T13:14:05.102Z,20.10
2018-06-17T13:16:11.057Z,20.20
2018-06-17T13:18:16.598Z,20.20
2018-06-17T13:20:21.661Z,20.20
2018-06-17T13:22:27.375Z,20.10
2018-06-17T13:24:33.761Z,20.40
2018-06-17T13:26:40.198Z,20.60
2018-06-17T13:31:17.793Z,20.40
2018-06-17T13:33:22.767Z,20.50
2018-06-17T13:35:27.786Z,20.20
2018-06-17T13:37:33.314Z,19.90
2018-06-17T13:39:39.194Z,20.20
2018-06-17T13:41:44.577Z,20.40
2018-06-17T13:43:49.519Z,20.30
2018-06-17T13:45:54.446Z,20.10
2018-06-17T13:47:59.454Z,20.10
2018-06-17T13:50:04.524Z,19.80
2018-06-17T13:52:10.419Z,20.10
2018-06-17T13:54:15.372Z,20.10
2018-06-17T13:56:20.631Z,20.10
2018-06-17T13:58:26.078Z,19.90
2018-06-17T14:00:31.019Z,20.20
2018-06-17T14:02:35.956Z,20.30
2018-06-17T14:04:42.043Z,20.20
2018-06-17T14:06:47.012Z,20.30
2018-06-17T14:08:51.914Z,20.00
2018-06-17T14:10:57.878Z,19.80
2018-06-17T14:13:03.648Z,19.90
2018-06-17T14:15:09.642Z,19.80
2018-06-17T14:17:14.992Z,19.80
2018-06-17T14:19:21.248Z,20.00
2018-06-17T14:21:26.194Z,19.80
2018-06-17T14:23:31.150Z,19.50
2018-06-17T14:25:36.158Z,19.30
2018-06-17T14:30:13.595Z,18.90
2018-06-17T14:32:18.631Z,18.90
2018-06-17T14:34:24.430Z,18.70
2018-06-17T14:36:29.374Z,18.70
2018-06-17T14:38:35.393Z,18.80
2018-06-17T14:40:45.486Z,19.10
2018-06-17T14:42:55.968Z,19.30
2018-06-17T14:45:07.258Z,19.50
2018-06-17T14:49:49.544Z,19.80
2018-06-17T14:51:59.664Z,20.00
2018-06-17T14:54:04.672Z,19.80
2018-06-17T14:56:09.969Z,20.00
2018-06-17T14:58:15.367Z,20.40
2018-06-17T15:00:21.036Z,20.70
2018-06-17T15:02:27.664Z,21.10
2018-06-17T15:04:33.326Z,21.10
2018-06-17T15:06:38.414Z,21.20
2018-06-17T15:08:44.035Z,20.80
2018-06-17T15:10:49.409Z,21.00
2018-06-17T15:12:54.717Z,20.90
2018-06-17T15:15:00.155Z,21.10
2018-06-17T15:17:15.447Z,21.50
2018-06-17T15:21:24.756Z,21.70
2018-06-17T15:23:29.730Z,21.90
2018-06-17T15:27:38.924Z,21.10
2018-06-17T15:29:43.900Z,21.10
2018-06-17T15:31:53.877Z,21.00
2018-06-17T15:34:03.846Z,20.70
2018-06-17T15:36:13.875Z,21.10
2018-06-17T15:38:24.016Z,21.30
2018-06-17T15:40:33.876Z,21.40
2018-06-17T15:42:38.892Z,21.30
2018-06-17T15:44:46.866Z,21.60
2018-06-17T15:46:52.171Z,21.80
2018-06-17T15:48:57.138Z,21.30
2018-06-17T15:51:02.111Z,21.60
2018-06-17T15:53:07.129Z,21.70
2018-06-17T15:55:12.143Z,21.50
2018-06-17T15:57:17.061Z,21.50
2018-06-17T15:59:21.983Z,21.30
2018-06-17T16:01:26.926Z,21.50
2018-06-17T16:03:32.377Z,21.50
2018-06-17T16:05:37.260Z,21.30
2018-06-17T16:07:42.411Z,21.20
2018-06-17T16:09:47.699Z,21.20
2018-06-17T16:12:59.305Z,21.60
2018-06-17T16:15:09.347Z,21.90
2018-06-17T16:17:19.434Z,22.30
2018-06-17T16:19:29.664Z,22.20
2018-06-17T16:21:34.581Z,22.00
2018-06-17T16:23:39.485Z,22.00
2018-06-17T16:25:44.457Z,21.00
2018-06-17T16:27:49.417Z,20.40
2018-06-17T16:29:54.288Z,20.50
2018-06-17T16:31:59.420Z,20.40
2018-06-17T16:34:04.300Z,20.40
2018-06-17T16:36:09.260Z,20.10
2018-06-17T16:38:14.730Z,20.10
2018-06-17T16:40:19.756Z,20.00
2018-06-17T16:42:24.748Z,19.90
2018-06-17T16:44:30.368Z,20.00
2018-06-17T16:46:35.339Z,20.00
2018-06-17T16:48:40.307Z,20.30
2018-06-17T16:50:50.288Z,20.00
2018-06-17T16:53:00.611Z,20.00
2018-06-17T16:55:10.853Z,19.80
2018-06-17T16:57:21.028Z,19.60
2018-06-17T16:59:31.385Z,19.50
2018-06-17T17:01:37.040Z,19.40
2018-06-17T17:03:42.463Z,19.40
2018-06-17T17:05:47.655Z,19.50
2018-06-17T17:07:53.971Z,19.30
2018-06-17T17:09:59.012Z,19.30
2018-06-17T17:12:03.926Z,19.30
2018-06-17T17:14:09.090Z,19.30
2018-06-17T17:16:14.075Z,19.20
2018-06-17T17:18:19.603Z,18.70
2018-06-17T17:20:25.016Z,17.80
2018-06-17T17:22:31.711Z,17.40
2018-06-17T17:24:36.643Z,17.60
2018-06-17T17:26:41.600Z,17.40
2018-06-17T17:28:46.591Z,17.90
2018-06-17T17:30:51.558Z,17.90
2018-06-17T17:33:01.753Z,18.00
2018-06-17T17:35:12.274Z,18.10
2018-06-17T17:37:22.349Z,18.30
2018-06-17T17:39:32.906Z,18.50
2018-06-17T17:41:38.287Z,18.70
2018-06-17T17:43:44.443Z,18.50
2018-06-17T17:45:55.383Z,18.10
2018-06-17T17:48:00.886Z,18.50
2018-06-17T17:50:06.802Z,18.70
2018-06-17T17:52:11.777Z,18.40
2018-06-17T17:54:16.784Z,17.90
2018-06-17T18:00:30.712Z,18.00
2018-06-17T18:02:35.682Z,18.20
2018-06-17T18:04:40.598Z,17.80
2018-06-17T18:06:45.493Z,17.50
2018-06-17T18:08:50.437Z,17.60
2018-06-17T18:10:55.451Z,17.30
2018-06-17T18:13:00.373Z,17.40
2018-06-17T18:15:05.491Z,17.80
2018-06-17T18:19:15.069Z,17.70
2018-06-17T18:21:20.100Z,17.40
2018-06-17T18:23:25.065Z,17.40
2018-06-17T18:25:35.911Z,17.60
2018-06-17T18:27:46.851Z,17.20
2018-06-17T18:29:57.516Z,17.30
2018-06-17T18:32:08.240Z,17.10
2018-06-17T18:34:19.888Z,17.10
2018-06-17T18:36:26.237Z,17.00
2018-06-17T18:38:32.220Z,17.20
2018-06-17T18:40:38.946Z,17.10
2018-06-17T18:42:44.907Z,17.10
2018-06-17T18:44:50.910Z,17.20
2018-06-17T18:46:55.968Z,17.20
2018-06-17T18:49:00.905Z,16.90
2018-06-17T18:53:10.258Z,16.90
2018-06-17T18:55:15.523Z,16.80
2018-06-17T18:57:21.845Z,16.90
2018-06-17T18:59:26.780Z,17.10
2018-06-17T19:01:31.753Z,17.10
2018-06-17T19:03:36.665Z,17.40
2018-06-17T19:05:41.628Z,17.30
2018-06-17T19:07:46.520Z,17.00
2018-06-17T19:09:56.821Z,17.00
2018-06-17T19:13:04.549Z,17.10
2018-06-17T19:15:15.126Z,16.80
2018-06-17T19:17:25.113Z,16.90
2018-06-17T19:19:30.066Z,17.10
2018-06-17T19:21:35.083Z,17.20
2018-06-17T19:23:40.811Z,17.10
2018-06-17T19:25:46.327Z,17.10
2018-06-17T19:29:56.469Z,16.90
2018-06-17T19:32:01.483Z,17.10
2018-06-17T19:34:07.030Z,16.80
2018-06-17T19:36:12.641Z,17.00
2018-06-17T19:38:25.110Z,16.90
2018-06-17T19:40:30.712Z,17.00
2018-06-17T19:42:35.857Z,17.10
2018-06-17T19:44:41.166Z,17.00
2018-06-17T19:46:46.650Z,16.90
2018-06-17T19:48:51.992Z,17.10
2018-06-17T19:51:02.087Z,17.20
2018-06-17T19:53:12.584Z,17.10
2018-06-17T19:55:28.863Z,16.60
2018-06-17T19:57:39.247Z,16.80
2018-06-17T19:59:49.909Z,16.80
2018-06-17T20:01:54.915Z,16.60
2018-06-17T20:04:00.611Z,16.80
2018-06-17T20:06:12.110Z,16.90
2018-06-17T20:08:17.418Z,16.90
2018-06-17T20:10:22.789Z,16.80
2018-06-17T20:12:28.157Z,16.70
2018-06-17T20:14:34.916Z,16.70
2018-06-17T20:16:40.810Z,16.70
2018-06-17T20:18:47.020Z,16.80
2018-06-17T20:20:53.215Z,16.70
2018-06-17T20:22:58.169Z,16.40
2018-06-17T20:25:03.247Z,16.60
2018-06-17T20:27:08.783Z,16.40
2018-06-17T20:29:16.675Z,16.70
2018-06-17T20:31:22.276Z,16.80
2018-06-17T20:33:32.692Z,17.00
2018-06-17T20:35:43.134Z,17.10
2018-06-17T20:37:53.245Z,17.20
2018-06-17T20:40:03.817Z,17.20
2018-06-17T20:42:14.901Z,17.00
2018-06-17T20:44:19.881Z,17.10
2018-06-17T20:46:25.027Z,16.80
2018-06-17T20:48:30.603Z,16.80
2018-06-17T20:50:36.306Z,16.80
2018-06-17T20:54:45.859Z,16.80
2018-06-17T20:56:51.286Z,16.50
2018-06-17T20:58:56.180Z,16.50
2018-06-17T21:01:01.193Z,16.80
2018-06-17T21:03:06.148Z,16.80
2018-06-17T21:05:11.433Z,17.00
2018-06-17T21:07:16.763Z,16.80
2018-06-17T21:09:21.746Z,16.60
2018-06-17T21:11:26.699Z,16.50
2018-06-17T21:13:31.656Z,16.30
2018-06-17T21:15:36.626Z,16.40
2018-06-17T21:17:41.579Z,16.20
2018-06-17T21:19:51.776Z,16.30
2018-06-17T21:22:01.744Z,16.40
2018-06-17T21:24:11.738Z,16.30
2018-06-17T21:26:22.346Z,16.20
2018-06-17T21:28:27.609Z,16.50
2018-06-17T21:30:32.572Z,16.80
2018-06-17T21:32:38.607Z,16.90
2018-06-17T21:34:44.023Z,17.00
2018-06-17T21:36:48.978Z,16.80
2018-06-17T21:38:53.917Z,16.70
2018-06-17T21:40:59.559Z,16.70
2018-06-17T21:43:04.536Z,16.80
2018-06-17T21:45:10.206Z,16.90
2018-06-17T21:47:15.318Z,16.90
2018-06-17T21:49:20.342Z,16.80
2018-06-17T21:51:26.379Z,16.80
2018-06-17T21:53:31.389Z,16.70
2018-06-17T21:55:36.664Z,16.80
2018-06-17T21:57:41.681Z,17.00
2018-06-17T21:59:46.681Z,16.90
2018-06-17T22:01:52.232Z,16.60
2018-06-17T22:04:03.454Z,16.80
2018-06-17T22:06:08.341Z,16.60
2018-06-17T22:08:18.863Z,16.80
2018-06-17T22:10:29.094Z,16.80
2018-06-17T22:12:39.136Z,16.40
2018-06-17T22:14:49.717Z,16.60
2018-06-17T22:16:59.785Z,16.50
2018-06-17T22:19:05.171Z,16.60
2018-06-17T22:21:10.152Z,16.60
2018-06-17T22:23:15.093Z,16.70
2018-06-17T22:25:20.173Z,16.80
2018-06-17T22:27:25.067Z,16.80
2018-06-17T22:29:30.947Z,16.80
2018-06-17T22:31:36.021Z,16.90
2018-06-17T22:33:41.106Z,16.80
2018-06-17T22:35:46.470Z,16.90
2018-06-17T22:37:51.820Z,16.90
2018-06-17T22:39:56.876Z,16.70
2018-06-17T22:42:01.972Z,16.70
2018-06-17T22:44:06.943Z,16.40
2018-06-17T22:46:11.935Z,16.30
2018-06-17T22:48:17.547Z,16.60
2018-06-17T22:50:22.887Z,16.30
2018-06-17T22:52:27.963Z,16.50
2018-06-17T22:54:43.853Z,16.30
2018-06-17T22:56:53.979Z,16.30
2018-06-17T22:59:04.062Z,16.50
2018-06-17T23:01:14.126Z,16.30
2018-06-17T23:03:24.314Z,16.20
2018-06-17T23:05:34.490Z,16.00
2018-06-17T23:07:44.570Z,15.90
2018-06-17T23:09:51.059Z,16.20
2018-06-17T23:11:56.071Z,16.40
2018-06-17T23:14:01.067Z,16.40
2018-06-17T23:16:06.057Z,16.30
2018-06-17T23:18:11.459Z,16.10
2018-06-17T23:20:16.682Z,16.00
2018-06-17T23:22:21.635Z,16.10
2018-06-17T23:24:26.631Z,16.20
2018-06-17T23:26:31.561Z,16.50
2018-06-17T23:28:36.500Z,16.50
2018-06-17T23:30:41.478Z,16.50
2018-06-17T23:32:46.871Z,16.40
2018-06-17T23:34:51.783Z,16.40
2018-06-17T23:36:56.790Z,16.70
2018-06-17T23:39:02.552Z,16.90
2018-06-17T23:41:07.606Z,16.80
2018-06-17T23:45:16.915Z,16.60
2018-06-17T23:47:27.065Z,16.40
2018-06-17T23:49:37.198Z,16.30
2018-06-17T23:51:47.341Z,16.40
2018-06-17T23:53:57.734Z,16.30
2018-06-17T23:56:08.381Z,16.10
2018-06-17T23:58:13.793Z,16.40
